Ana Sayfa
METAR-TAF:

METAR-TAF

Havaalanları :

Dansville Municipal Airport

Dansville, New York, Amerika Birleşik Devletleri

Enlem: 42-34-10N, Boylam: 077-42-52W, yükseklik: 201 m

Güncel hava durumu gözlemi

Rapor saat 00:54 UTC de 33 dakika önce yapıldı.
Rüzgar batı/kuzeybatıdan 3 kt
Sıcaklık 0°C
Nem 74%
Basınç 1018 hPa
Görüş mesafesi: 16.1 km
3600 ft yükseklikte az bulutlu
4600 ft yükseklikte çok bulutlu

METAR: KDSV 060054Z AUTO 29003KT 10SM FEW036 OVC046 00/M04 A3006 RMK AO2 SLP194 T00001044

Saat: 20:27 (01:27 UTC)


TAF: eksik

4.000'den fazla havaalanı için hava durumu gözlemleri ve tahminleri (METAR ve TAF raporları).

Kullanılabilir istasyonlar harita üzerinde sarı ve kırmızı noktalarla gösterilir.

İstasyonun adını görmek için fareyi noktanın üzerinde gezdirin.

Sonrasında hava gözlem ve tahminlerini görmek için tıklayın.

Haritayı değiştirmek için: yaklaştırmak için siyah artı işaretli yeşil düğmeye ve uzaklaştırmak için de eksi işaretli düğmeye hızla tıklayın; bitişik haritalar için yeşil okları kullanın.


METAR-TAF: